createdAt,value
2022-08-26T00:00:52.000Z,74
2022-08-26T00:02:58.000Z,75
2022-08-26T00:04:24.000Z,74
2022-08-26T00:06:31.000Z,74
2022-08-26T00:07:58.000Z,75
2022-08-26T00:10:04.000Z,75
2022-08-26T00:11:31.000Z,75
2022-08-26T00:13:37.000Z,75
2022-08-26T00:15:04.000Z,75
2022-08-26T00:17:10.000Z,74
2022-08-26T00:18:36.000Z,76
2022-08-26T00:20:46.000Z,77
2022-08-26T00:23:38.000Z,76
2022-08-26T00:25:04.000Z,76
2022-08-26T00:27:11.000Z,76
2022-08-26T00:28:37.000Z,76
2022-08-26T00:30:43.000Z,76
2022-08-26T00:32:11.000Z,76
2022-08-26T00:34:20.000Z,76
2022-08-26T00:35:46.000Z,76
2022-08-26T00:37:52.000Z,76
2022-08-26T00:39:19.000Z,76
2022-08-26T00:41:26.000Z,77
2022-08-26T00:42:53.000Z,77
2022-08-26T00:44:59.000Z,76
2022-08-26T00:46:26.000Z,77
2022-08-26T00:48:32.000Z,77
2022-08-26T00:49:59.000Z,77
2022-08-26T00:52:05.000Z,77
2022-08-26T00:53:36.000Z,78
2022-08-26T00:55:42.000Z,78
2022-08-26T00:57:09.000Z,77
2022-08-26T00:59:22.000Z,77
2022-08-26T01:02:13.000Z,77
2022-08-26T01:03:46.000Z,78
2022-08-26T01:05:52.000Z,77
2022-08-26T01:07:20.000Z,79
2022-08-26T01:09:27.000Z,77
2022-08-26T01:10:54.000Z,78
2022-08-26T01:13:01.000Z,78
2022-08-26T01:14:29.000Z,79
2022-08-26T01:16:35.000Z,79
2022-08-26T01:18:02.000Z,79
2022-08-26T01:20:08.000Z,78
2022-08-26T01:21:35.000Z,79
2022-08-26T01:23:46.000Z,78
2022-08-26T01:25:13.000Z,79
2022-08-26T01:27:19.000Z,79
2022-08-26T01:28:46.000Z,79
2022-08-26T01:30:56.000Z,81
2022-08-26T01:32:24.000Z,80
2022-08-26T01:34:30.000Z,80
2022-08-26T01:35:56.000Z,79
2022-08-26T01:38:03.000Z,80
2022-08-26T01:40:54.000Z,79
2022-08-26T01:42:21.000Z,79
2022-08-26T01:44:29.000Z,81
2022-08-26T01:45:56.000Z,80
2022-08-26T01:48:02.000Z,80
2022-08-26T01:49:28.000Z,80
2022-08-26T01:51:37.000Z,80
2022-08-26T01:53:04.000Z,81
2022-08-26T01:55:10.000Z,81
2022-08-26T01:56:37.000Z,81
2022-08-26T01:58:43.000Z,79
2022-08-26T02:00:09.000Z,80
2022-08-26T02:02:16.000Z,81
2022-08-26T02:03:43.000Z,81
2022-08-26T02:05:49.000Z,81
2022-08-26T02:07:17.000Z,80
2022-08-26T02:09:24.000Z,81
2022-08-26T02:10:51.000Z,80
2022-08-26T02:13:00.000Z,81
2022-08-26T02:14:27.000Z,81
2022-08-26T02:16:33.000Z,81
2022-08-26T02:19:27.000Z,82
2022-08-26T02:20:53.000Z,82
2022-08-26T02:22:59.000Z,82
2022-08-26T02:24:26.000Z,82
2022-08-26T02:26:33.000Z,81
2022-08-26T02:28:00.000Z,81
2022-08-26T02:30:06.000Z,80
2022-08-26T02:31:33.000Z,82
2022-08-26T02:33:40.000Z,81
2022-08-26T02:35:09.000Z,82
2022-08-26T02:37:15.000Z,82
2022-08-26T02:38:44.000Z,81
2022-08-26T02:40:52.000Z,82
2022-08-26T02:42:18.000Z,82
2022-08-26T02:44:25.000Z,82
2022-08-26T02:45:51.000Z,82
2022-08-26T02:47:57.000Z,82
2022-08-26T02:49:25.000Z,83
2022-08-26T02:51:32.000Z,84
2022-08-26T02:52:59.000Z,85
2022-08-26T02:55:05.000Z,83
2022-08-26T02:57:57.000Z,84
2022-08-26T02:59:23.000Z,83
2022-08-26T03:01:30.000Z,83
2022-08-26T03:02:57.000Z,82
2022-08-26T03:05:03.000Z,82
2022-08-26T03:06:30.000Z,83
2022-08-26T03:08:36.000Z,83
2022-08-26T03:10:03.000Z,82
2022-08-26T03:12:14.000Z,82
2022-08-26T03:13:41.000Z,82
2022-08-26T03:15:47.000Z,82
2022-08-26T03:17:14.000Z,82
2022-08-26T03:19:20.000Z,83
2022-08-26T03:20:46.000Z,83
2022-08-26T03:22:52.000Z,82
2022-08-26T03:24:22.000Z,83
2022-08-26T03:26:31.000Z,83
2022-08-26T03:27:57.000Z,82
2022-08-26T03:30:05.000Z,83
2022-08-26T03:31:32.000Z,84
2022-08-26T03:33:38.000Z,84
2022-08-26T03:36:29.000Z,83
2022-08-26T03:37:56.000Z,83
2022-08-26T03:40:03.000Z,84
2022-08-26T03:41:29.000Z,83
2022-08-26T03:43:35.000Z,84
2022-08-26T03:45:02.000Z,83
2022-08-26T03:47:08.000Z,83
2022-08-26T03:48:35.000Z,83
2022-08-26T03:50:41.000Z,83
2022-08-26T03:52:09.000Z,84
2022-08-26T03:54:15.000Z,84
2022-08-26T03:55:42.000Z,84
2022-08-26T03:57:49.000Z,85
2022-08-26T03:59:16.000Z,84
2022-08-26T04:01:22.000Z,82
2022-08-26T04:02:49.000Z,83
2022-08-26T04:04:55.000Z,83
2022-08-26T04:06:22.000Z,83
2022-08-26T04:08:30.000Z,83
2022-08-26T04:09:56.000Z,83
2022-08-26T04:12:02.000Z,82
2022-08-26T04:14:54.000Z,82
2022-08-26T04:16:24.000Z,83
2022-08-26T04:18:31.000Z,82
2022-08-26T04:20:03.000Z,83
2022-08-26T04:22:09.000Z,82
2022-08-26T04:23:36.000Z,81
2022-08-26T04:25:53.000Z,82
2022-08-26T04:27:20.000Z,82
2022-08-26T04:29:26.000Z,83
2022-08-26T04:30:52.000Z,83
2022-08-26T04:32:59.000Z,84
2022-08-26T04:34:25.000Z,84
2022-08-26T04:36:34.000Z,84
2022-08-26T04:38:02.000Z,84
2022-08-26T04:40:11.000Z,84
2022-08-26T04:41:38.000Z,84
2022-08-26T04:43:46.000Z,84
2022-08-26T04:45:12.000Z,82
2022-08-26T04:47:18.000Z,83
2022-08-26T04:48:45.000Z,83
2022-08-26T04:50:51.000Z,84
2022-08-26T04:53:43.000Z,84
2022-08-26T04:55:09.000Z,83
2022-08-26T04:57:16.000Z,83
2022-08-26T04:58:42.000Z,83
2022-08-26T05:00:48.000Z,84
2022-08-26T05:02:15.000Z,84
2022-08-26T05:04:21.000Z,83
2022-08-26T05:05:48.000Z,83
2022-08-26T05:07:54.000Z,82
2022-08-26T05:09:21.000Z,83
2022-08-26T05:11:28.000Z,83
2022-08-26T05:12:54.000Z,83
2022-08-26T05:15:02.000Z,83
2022-08-26T05:16:29.000Z,82
2022-08-26T05:18:35.000Z,81
2022-08-26T05:20:02.000Z,82
2022-08-26T05:22:09.000Z,81
2022-08-26T05:23:39.000Z,81
2022-08-26T05:25:45.000Z,81
2022-08-26T05:27:12.000Z,81
2022-08-26T05:29:18.000Z,81
2022-08-26T05:32:11.000Z,81
2022-08-26T05:33:37.000Z,81
2022-08-26T05:35:47.000Z,81
2022-08-26T05:37:13.000Z,81
2022-08-26T05:39:22.000Z,81
2022-08-26T05:40:49.000Z,81
2022-08-26T05:42:59.000Z,80
2022-08-26T05:44:25.000Z,81
2022-08-26T05:46:31.000Z,80
2022-08-26T05:47:58.000Z,79
2022-08-26T05:50:04.000Z,77
2022-08-26T05:51:31.000Z,79
2022-08-26T05:53:37.000Z,78
2022-08-26T05:55:04.000Z,77
2022-08-26T05:57:12.000Z,75
2022-08-26T05:58:38.000Z,76
2022-08-26T06:00:44.000Z,75
2022-08-26T06:02:11.000Z,76
2022-08-26T06:04:19.000Z,76
2022-08-26T06:05:46.000Z,77
2022-08-26T06:07:53.000Z,78
2022-08-26T06:10:44.000Z,76
2022-08-26T06:12:12.000Z,77
2022-08-26T06:14:21.000Z,75
2022-08-26T06:15:47.000Z,77
2022-08-26T06:17:53.000Z,77
2022-08-26T06:19:20.000Z,75
2022-08-26T06:21:28.000Z,77
2022-08-26T06:22:54.000Z,76
2022-08-26T06:25:00.000Z,76
2022-08-26T06:26:27.000Z,75
2022-08-26T06:28:33.000Z,75
2022-08-26T06:30:00.000Z,74
2022-08-26T06:32:06.000Z,76
2022-08-26T06:33:33.000Z,74
2022-08-26T06:35:39.000Z,75
2022-08-26T06:37:05.000Z,74
2022-08-26T06:39:12.000Z,76
2022-08-26T06:40:40.000Z,74
2022-08-26T06:42:49.000Z,74
2022-08-26T06:44:15.000Z,75
2022-08-26T06:46:22.000Z,74
2022-08-26T06:49:13.000Z,74
2022-08-26T06:50:43.000Z,73
2022-08-26T06:52:49.000Z,73
2022-08-26T06:54:16.000Z,72
2022-08-26T06:56:22.000Z,72
2022-08-26T06:57:48.000Z,71
2022-08-26T06:59:54.000Z,71
2022-08-26T07:01:21.000Z,71
2022-08-26T07:03:27.000Z,71
2022-08-26T07:04:55.000Z,70
2022-08-26T07:07:02.000Z,70
2022-08-26T07:08:29.000Z,70
2022-08-26T07:10:37.000Z,70
2022-08-26T07:12:03.000Z,71
2022-08-26T07:14:10.000Z,70
2022-08-26T07:15:36.000Z,70
2022-08-26T07:17:43.000Z,71
2022-08-26T07:19:09.000Z,69
2022-08-26T07:21:17.000Z,69
2022-08-26T07:22:44.000Z,69
2022-08-26T07:24:50.000Z,68
2022-08-26T07:27:42.000Z,68
2022-08-26T07:29:08.000Z,68
2022-08-26T07:31:14.000Z,68
2022-08-26T07:32:41.000Z,68
2022-08-26T07:34:47.000Z,67
2022-08-26T07:36:14.000Z,68
2022-08-26T07:38:20.000Z,66
2022-08-26T07:39:46.000Z,66
2022-08-26T07:41:53.000Z,66
2022-08-26T07:43:19.000Z,66
2022-08-26T07:45:26.000Z,65
2022-08-26T07:46:52.000Z,66
2022-08-26T07:48:59.000Z,65
2022-08-26T07:50:26.000Z,65
2022-08-26T07:52:56.000Z,64
2022-08-26T07:54:22.000Z,64
2022-08-26T07:56:33.000Z,65
2022-08-26T07:57:59.000Z,64
2022-08-26T08:00:06.000Z,64
2022-08-26T08:01:32.000Z,64
2022-08-26T08:03:39.000Z,64
2022-08-26T08:06:30.000Z,64
2022-08-26T08:07:58.000Z,63
2022-08-26T08:10:34.000Z,63
2022-08-26T08:12:01.000Z,63
2022-08-26T08:14:07.000Z,62
2022-08-26T08:15:35.000Z,61
2022-08-26T08:17:41.000Z,62
2022-08-26T08:19:08.000Z,60
2022-08-26T08:21:14.000Z,61
2022-08-26T08:22:50.000Z,60
2022-08-26T08:24:57.000Z,60
2022-08-26T08:26:24.000Z,60
2022-08-26T08:28:30.000Z,59
2022-08-26T08:29:56.000Z,59
2022-08-26T08:32:03.000Z,59
2022-08-26T08:33:30.000Z,59
2022-08-26T08:35:36.000Z,58
2022-08-26T08:37:03.000Z,58
2022-08-26T08:39:13.000Z,58
2022-08-26T08:40:40.000Z,58
2022-08-26T08:42:47.000Z,56
2022-08-26T08:45:39.000Z,56
2022-08-26T08:47:05.000Z,56
2022-08-26T08:49:11.000Z,57
2022-08-26T08:50:40.000Z,56
2022-08-26T08:52:47.000Z,57
2022-08-26T08:54:13.000Z,56
2022-08-26T08:56:20.000Z,55
2022-08-26T08:57:46.000Z,55
2022-08-26T08:59:53.000Z,56
2022-08-26T09:01:20.000Z,55
2022-08-26T09:03:26.000Z,55
2022-08-26T09:04:53.000Z,55
2022-08-26T09:06:59.000Z,54
2022-08-26T09:08:25.000Z,54
2022-08-26T09:10:31.000Z,53
2022-08-26T09:11:58.000Z,53
2022-08-26T09:14:04.000Z,53
2022-08-26T09:15:31.000Z,51
2022-08-26T09:17:37.000Z,52
2022-08-26T09:19:04.000Z,52
2022-08-26T09:21:10.000Z,50
2022-08-26T09:24:01.000Z,49
2022-08-26T09:25:28.000Z,49
2022-08-26T09:27:37.000Z,46
2022-08-26T09:29:04.000Z,48
2022-08-26T09:31:10.000Z,48
2022-08-26T09:32:38.000Z,48
2022-08-26T09:34:44.000Z,47
2022-08-26T09:36:11.000Z,48
2022-08-26T09:38:17.000Z,47
2022-08-26T09:39:44.000Z,47
2022-08-26T09:41:50.000Z,46
2022-08-26T09:43:17.000Z,45
2022-08-26T09:45:29.000Z,46
2022-08-26T09:46:56.000Z,46
2022-08-26T09:49:02.000Z,45
2022-08-26T09:50:31.000Z,45
2022-08-26T09:52:37.000Z,45
2022-08-26T09:54:06.000Z,46
2022-08-26T09:56:14.000Z,44
2022-08-26T09:57:40.000Z,44
2022-08-26T09:59:50.000Z,43
2022-08-26T10:02:42.000Z,43
2022-08-26T10:04:15.000Z,42
2022-08-26T10:06:22.000Z,42
2022-08-26T10:07:48.000Z,43
2022-08-26T10:09:55.000Z,41
2022-08-26T10:11:22.000Z,41
2022-08-26T10:13:28.000Z,41
2022-08-26T10:14:55.000Z,42
2022-08-26T10:17:02.000Z,42
2022-08-26T10:18:28.000Z,41
2022-08-26T10:20:40.000Z,41
2022-08-26T10:22:10.000Z,41
2022-08-26T10:24:17.000Z,42
2022-08-26T10:25:43.000Z,42
2022-08-26T10:27:50.000Z,44
2022-08-26T10:29:20.000Z,54
2022-08-26T10:31:28.000Z,58
2022-08-26T10:32:54.000Z,58
2022-08-26T10:35:01.000Z,61
2022-08-26T10:36:32.000Z,63
2022-08-26T10:38:48.000Z,66
2022-08-26T10:41:40.000Z,73
2022-08-26T10:43:07.000Z,70
2022-08-26T10:45:17.000Z,72
2022-08-26T10:46:46.000Z,73
2022-08-26T10:48:52.000Z,72
2022-08-26T10:50:18.000Z,75
2022-08-26T10:52:25.000Z,72
2022-08-26T10:53:55.000Z,74
2022-08-26T10:56:02.000Z,75
2022-08-26T10:57:28.000Z,74
2022-08-26T10:59:34.000Z,78
2022-08-26T11:01:03.000Z,79
2022-08-26T11:03:16.000Z,81
2022-08-26T11:04:49.000Z,82
2022-08-26T11:06:56.000Z,82
2022-08-26T11:08:23.000Z,84
2022-08-26T11:10:30.000Z,83
2022-08-26T11:11:57.000Z,84
2022-08-26T11:14:03.000Z,84
2022-08-26T11:15:29.000Z,85
2022-08-26T11:17:35.000Z,85
2022-08-26T11:20:26.000Z,87
2022-08-26T11:21:53.000Z,86
2022-08-26T11:23:59.000Z,87
2022-08-26T11:25:25.000Z,87
2022-08-26T11:27:36.000Z,86
2022-08-26T11:29:04.000Z,86
2022-08-26T11:31:18.000Z,87
2022-08-26T11:32:44.000Z,87
2022-08-26T11:34:54.000Z,86
2022-08-26T11:36:22.000Z,87
2022-08-26T11:38:31.000Z,87
2022-08-26T11:39:58.000Z,86
2022-08-26T11:42:04.000Z,86
2022-08-26T11:43:32.000Z,86
2022-08-26T11:45:38.000Z,85
2022-08-26T11:47:05.000Z,84
2022-08-26T11:49:17.000Z,84
2022-08-26T11:50:44.000Z,84
2022-08-26T11:52:52.000Z,84
2022-08-26T11:54:18.000Z,85
2022-08-26T11:56:41.000Z,88
2022-08-26T12:01:02.000Z,88
2022-08-26T12:03:09.000Z,88
2022-08-26T12:04:36.000Z,89
2022-08-26T12:06:42.000Z,88
2022-08-26T12:08:12.000Z,88
2022-08-26T12:10:18.000Z,86
2022-08-26T12:11:44.000Z,88
2022-08-26T12:13:51.000Z,87
2022-08-26T12:15:17.000Z,88
2022-08-26T12:17:24.000Z,88
2022-08-26T12:18:51.000Z,86
2022-08-26T12:20:57.000Z,86
2022-08-26T12:22:24.000Z,88
2022-08-26T12:24:30.000Z,88
2022-08-26T12:25:56.000Z,88
2022-08-26T12:28:03.000Z,88
2022-08-26T12:29:30.000Z,88
2022-08-26T12:31:36.000Z,88
2022-08-26T12:33:03.000Z,88
2022-08-26T12:35:27.000Z,87
2022-08-26T12:38:18.000Z,83
2022-08-26T12:39:45.000Z,81
2022-08-26T12:41:51.000Z,76
2022-08-26T12:43:18.000Z,75
2022-08-26T12:45:25.000Z,75
2022-08-26T12:46:52.000Z,69
2022-08-26T12:48:58.000Z,70
2022-08-26T12:50:24.000Z,71
2022-08-26T12:52:31.000Z,70
2022-08-26T12:53:57.000Z,67
2022-08-26T12:56:03.000Z,67
2022-08-26T12:57:30.000Z,66
2022-08-26T12:59:36.000Z,65
2022-08-26T13:01:03.000Z,65
2022-08-26T13:03:09.000Z,65
2022-08-26T13:04:36.000Z,66
2022-08-26T13:06:42.000Z,67
2022-08-26T13:08:09.000Z,63
2022-08-26T13:10:15.000Z,63
2022-08-26T13:11:42.000Z,66
2022-08-26T13:13:48.000Z,63
2022-08-26T13:16:40.000Z,64
2022-08-26T13:18:07.000Z,64
2022-08-26T13:20:13.000Z,63
2022-08-26T13:21:39.000Z,63
2022-08-26T13:23:45.000Z,60
2022-08-26T13:25:12.000Z,55
2022-08-26T13:27:18.000Z,56
2022-08-26T13:28:45.000Z,55
2022-08-26T13:30:59.000Z,53
2022-08-26T13:32:25.000Z,56
2022-08-26T13:34:33.000Z,53
2022-08-26T13:36:00.000Z,51
2022-08-26T13:38:06.000Z,53
2022-08-26T13:39:33.000Z,49
2022-08-26T13:41:39.000Z,52
2022-08-26T13:43:05.000Z,55
2022-08-26T13:45:11.000Z,54
2022-08-26T13:46:38.000Z,54
2022-08-26T13:48:44.000Z,55
2022-08-26T13:50:11.000Z,55
2022-08-26T13:52:17.000Z,51
2022-08-26T13:55:21.000Z,48
2022-08-26T13:56:47.000Z,50
2022-08-26T13:58:54.000Z,55
2022-08-26T14:00:20.000Z,53
2022-08-26T14:02:26.000Z,55
2022-08-26T14:03:53.000Z,52
2022-08-26T14:05:59.000Z,55
2022-08-26T14:07:25.000Z,57
2022-08-26T14:09:32.000Z,58
2022-08-26T14:11:04.000Z,67
2022-08-26T14:13:10.000Z,70
2022-08-26T14:14:36.000Z,72
2022-08-26T14:16:43.000Z,72
2022-08-26T14:18:26.000Z,74
2022-08-26T14:20:34.000Z,76
2022-08-26T14:22:00.000Z,74
2022-08-26T14:24:07.000Z,76
2022-08-26T14:25:33.000Z,75
2022-08-26T14:27:40.000Z,72
2022-08-26T14:29:07.000Z,76
2022-08-26T14:31:13.000Z,75
2022-08-26T14:34:05.000Z,76
2022-08-26T14:35:31.000Z,74
2022-08-26T14:37:37.000Z,72
2022-08-26T14:39:04.000Z,71
2022-08-26T14:41:10.000Z,73
2022-08-26T14:42:37.000Z,73
2022-08-26T14:44:44.000Z,72
2022-08-26T14:46:11.000Z,60
2022-08-26T14:48:17.000Z,60
2022-08-26T14:49:43.000Z,59
2022-08-26T14:51:50.000Z,58
2022-08-26T14:53:16.000Z,54
2022-08-26T14:55:22.000Z,55
2022-08-26T14:56:49.000Z,54
2022-08-26T14:58:55.000Z,53
2022-08-26T15:00:21.000Z,54
2022-08-26T15:02:28.000Z,53
2022-08-26T15:04:00.000Z,53
2022-08-26T15:06:06.000Z,54
2022-08-26T15:07:33.000Z,54
2022-08-26T15:09:39.000Z,54
2022-08-26T15:12:30.000Z,54
2022-08-26T15:13:56.000Z,54
2022-08-26T15:16:02.000Z,55
2022-08-26T15:17:29.000Z,57
2022-08-26T15:19:35.000Z,55
2022-08-26T15:21:02.000Z,57
2022-08-26T15:23:08.000Z,56
2022-08-26T15:24:35.000Z,58
2022-08-26T15:26:41.000Z,56
2022-08-26T15:28:07.000Z,56
2022-08-26T15:30:14.000Z,58
2022-08-26T15:31:40.000Z,58
2022-08-26T15:33:47.000Z,57
2022-08-26T15:35:13.000Z,57
2022-08-26T15:37:19.000Z,57
2022-08-26T15:38:46.000Z,56
2022-08-26T15:40:52.000Z,57
2022-08-26T15:42:18.000Z,59
2022-08-26T15:44:25.000Z,56
2022-08-26T15:45:51.000Z,57
2022-08-26T15:47:58.000Z,57
2022-08-26T15:50:52.000Z,59
2022-08-26T15:52:19.000Z,58
2022-08-26T15:54:25.000Z,55
2022-08-26T15:55:51.000Z,56
2022-08-26T15:57:58.000Z,56
2022-08-26T15:59:24.000Z,54
2022-08-26T16:01:31.000Z,54
2022-08-26T16:02:57.000Z,54
2022-08-26T16:05:03.000Z,54
2022-08-26T16:06:30.000Z,53
2022-08-26T16:08:36.000Z,54
2022-08-26T16:10:03.000Z,55
2022-08-26T16:12:09.000Z,55
2022-08-26T16:13:35.000Z,55
2022-08-26T16:15:46.000Z,55
2022-08-26T16:17:12.000Z,55
2022-08-26T16:19:18.000Z,56
2022-08-26T16:20:45.000Z,58
2022-08-26T16:23:19.000Z,58
2022-08-26T16:24:46.000Z,58
2022-08-26T16:26:52.000Z,58
2022-08-26T16:29:43.000Z,59
2022-08-26T16:31:10.000Z,60
2022-08-26T16:33:16.000Z,61
2022-08-26T16:34:55.000Z,61
2022-08-26T16:37:02.000Z,61
2022-08-26T16:38:29.000Z,61
2022-08-26T16:40:35.000Z,61
2022-08-26T16:42:02.000Z,61
2022-08-26T16:44:08.000Z,61
2022-08-26T16:45:34.000Z,61
2022-08-26T16:47:40.000Z,61
2022-08-26T16:49:07.000Z,61
2022-08-26T16:51:13.000Z,63
2022-08-26T16:52:40.000Z,64
2022-08-26T16:54:46.000Z,63
2022-08-26T16:56:12.000Z,64
2022-08-26T16:58:18.000Z,64
2022-08-26T16:59:48.000Z,65
2022-08-26T17:01:54.000Z,64
2022-08-26T17:03:21.000Z,63
2022-08-26T17:05:27.000Z,63
2022-08-26T17:08:18.000Z,63
2022-08-26T17:09:55.000Z,64
2022-08-26T17:12:01.000Z,65
2022-08-26T17:13:27.000Z,65
2022-08-26T17:15:41.000Z,65
2022-08-26T17:17:08.000Z,65
2022-08-26T17:19:14.000Z,65
2022-08-26T17:20:41.000Z,65
2022-08-26T17:22:47.000Z,66
2022-08-26T17:24:14.000Z,67
2022-08-26T17:26:20.000Z,67
2022-08-26T17:27:46.000Z,69
2022-08-26T17:29:53.000Z,68
2022-08-26T17:31:19.000Z,67
2022-08-26T17:33:25.000Z,67
2022-08-26T17:34:52.000Z,68
2022-08-26T17:36:58.000Z,69
2022-08-26T17:38:25.000Z,69
2022-08-26T17:40:31.000Z,70
2022-08-26T17:41:58.000Z,69
2022-08-26T17:44:04.000Z,70
2022-08-26T17:46:55.000Z,68
2022-08-26T17:48:21.000Z,68
2022-08-26T17:50:28.000Z,69
2022-08-26T17:51:54.000Z,69
2022-08-26T17:54:01.000Z,70
2022-08-26T17:55:27.000Z,70
2022-08-26T17:57:33.000Z,71
2022-08-26T17:59:07.000Z,71
2022-08-26T18:01:13.000Z,71
2022-08-26T18:02:40.000Z,73
2022-08-26T18:04:46.000Z,73
2022-08-26T18:06:12.000Z,72
2022-08-26T18:08:19.000Z,73
2022-08-26T18:09:45.000Z,72
2022-08-26T18:11:51.000Z,72
2022-08-26T18:13:18.000Z,72
2022-08-26T18:15:24.000Z,73
2022-08-26T18:16:51.000Z,73
2022-08-26T18:18:57.000Z,75
2022-08-26T18:20:23.000Z,75
2022-08-26T18:22:30.000Z,78
2022-08-26T18:25:21.000Z,78
2022-08-26T18:26:47.000Z,78
2022-08-26T18:28:54.000Z,79
2022-08-26T18:30:20.000Z,79
2022-08-26T18:32:26.000Z,78
2022-08-26T18:33:53.000Z,79
2022-08-26T18:35:59.000Z,77
2022-08-26T18:37:25.000Z,78
2022-08-26T18:39:37.000Z,77
2022-08-26T18:41:04.000Z,75
2022-08-26T18:43:10.000Z,75
2022-08-26T18:44:36.000Z,74
2022-08-26T18:46:42.000Z,76
2022-08-26T18:48:09.000Z,75
2022-08-26T18:50:15.000Z,76
2022-08-26T18:51:42.000Z,76
2022-08-26T18:53:48.000Z,75
2022-08-26T18:55:15.000Z,75
2022-08-26T18:57:21.000Z,77
2022-08-26T18:58:47.000Z,77
2022-08-26T19:00:54.000Z,76
2022-08-26T19:03:45.000Z,77
2022-08-26T19:05:11.000Z,77
2022-08-26T19:07:17.000Z,76
2022-08-26T19:08:44.000Z,78
2022-08-26T19:10:50.000Z,77
2022-08-26T19:12:19.000Z,78
2022-08-26T19:14:25.000Z,78
2022-08-26T19:15:51.000Z,76
2022-08-26T19:17:58.000Z,78
2022-08-26T19:19:24.000Z,77
2022-08-26T19:21:30.000Z,79
2022-08-26T19:22:57.000Z,78
2022-08-26T19:25:11.000Z,78
2022-08-26T19:26:38.000Z,80
2022-08-26T19:28:44.000Z,80
2022-08-26T19:30:10.000Z,80
2022-08-26T19:32:16.000Z,81
2022-08-26T19:33:43.000Z,80
2022-08-26T19:35:49.000Z,80
2022-08-26T19:37:16.000Z,80
2022-08-26T19:39:22.000Z,79
2022-08-26T19:42:13.000Z,82
2022-08-26T19:43:40.000Z,80
2022-08-26T19:45:47.000Z,79
2022-08-26T19:47:13.000Z,79
2022-08-26T19:49:19.000Z,79
2022-08-26T19:50:46.000Z,79
2022-08-26T19:52:52.000Z,78
2022-08-26T19:54:19.000Z,79
2022-08-26T19:56:25.000Z,78
2022-08-26T19:57:51.000Z,79
2022-08-26T19:59:57.000Z,79
2022-08-26T20:01:24.000Z,78
2022-08-26T20:03:30.000Z,78
2022-08-26T20:04:57.000Z,78
2022-08-26T20:07:03.000Z,78
2022-08-26T20:08:29.000Z,78
2022-08-26T20:10:35.000Z,78
2022-08-26T20:12:02.000Z,78
2022-08-26T20:14:08.000Z,78
2022-08-26T20:15:35.000Z,78
2022-08-26T20:17:41.000Z,78
2022-08-26T20:20:32.000Z,77
2022-08-26T20:22:00.000Z,77
2022-08-26T20:24:06.000Z,78
2022-08-26T20:25:32.000Z,78
2022-08-26T20:27:39.000Z,77
2022-08-26T20:29:05.000Z,78
2022-08-26T20:31:11.000Z,78
2022-08-26T20:32:38.000Z,78
2022-08-26T20:34:45.000Z,78
2022-08-26T20:36:11.000Z,78
2022-08-26T20:38:17.000Z,78
2022-08-26T20:39:48.000Z,78
2022-08-26T20:41:54.000Z,78
2022-08-26T20:43:20.000Z,78
2022-08-26T20:45:26.000Z,78
2022-08-26T20:46:53.000Z,78
2022-08-26T20:48:59.000Z,78
2022-08-26T20:50:27.000Z,78
2022-08-26T20:52:33.000Z,78
2022-08-26T20:53:59.000Z,78
2022-08-26T20:56:06.000Z,78
2022-08-26T20:58:57.000Z,78
2022-08-26T21:00:23.000Z,77
2022-08-26T21:02:32.000Z,76
2022-08-26T21:03:59.000Z,76
2022-08-26T21:06:05.000Z,78
2022-08-26T21:07:32.000Z,78
2022-08-26T21:09:38.000Z,77
2022-08-26T21:11:04.000Z,78
2022-08-26T21:13:13.000Z,78
2022-08-26T21:14:40.000Z,78
2022-08-26T21:16:46.000Z,79
2022-08-26T21:18:13.000Z,80
2022-08-26T21:20:19.000Z,80
2022-08-26T21:21:45.000Z,80
2022-08-26T21:23:51.000Z,80
2022-08-26T21:25:18.000Z,80
2022-08-26T21:27:24.000Z,80
2022-08-26T21:28:54.000Z,78
2022-08-26T21:31:00.000Z,81
2022-08-26T21:32:27.000Z,80
2022-08-26T21:34:33.000Z,81
2022-08-26T21:37:24.000Z,81
2022-08-26T21:38:51.000Z,81
2022-08-26T21:40:57.000Z,81
2022-08-26T21:42:24.000Z,81
2022-08-26T21:44:30.000Z,81
2022-08-26T21:45:56.000Z,81
2022-08-26T21:48:02.000Z,81
2022-08-26T21:49:29.000Z,80
2022-08-26T21:51:35.000Z,80
2022-08-26T21:53:02.000Z,80
2022-08-26T21:55:08.000Z,80
2022-08-26T21:56:37.000Z,81
2022-08-26T21:58:44.000Z,80
2022-08-26T22:00:10.000Z,80
2022-08-26T22:02:16.000Z,80
2022-08-26T22:03:43.000Z,81
2022-08-26T22:05:53.000Z,80
2022-08-26T22:07:20.000Z,80
2022-08-26T22:09:26.000Z,80
2022-08-26T22:10:52.000Z,80
2022-08-26T22:12:58.000Z,80
2022-08-26T22:15:50.000Z,80
2022-08-26T22:17:16.000Z,80
2022-08-26T22:19:22.000Z,80
2022-08-26T22:20:50.000Z,79
2022-08-26T22:22:56.000Z,80
2022-08-26T22:24:23.000Z,80
2022-08-26T22:26:29.000Z,80
2022-08-26T22:27:55.000Z,80
2022-08-26T22:30:01.000Z,80
2022-08-26T22:31:28.000Z,80
2022-08-26T22:33:44.000Z,81
2022-08-26T22:35:10.000Z,80
2022-08-26T22:37:34.000Z,81
2022-08-26T22:39:01.000Z,81
2022-08-26T22:41:07.000Z,81
2022-08-26T22:42:34.000Z,81
2022-08-26T22:44:40.000Z,81
2022-08-26T22:46:07.000Z,81
2022-08-26T22:48:13.000Z,81
2022-08-26T22:49:40.000Z,81
2022-08-26T22:51:46.000Z,81
2022-08-26T22:54:37.000Z,81
2022-08-26T22:56:03.000Z,81
2022-08-26T22:58:10.000Z,81
2022-08-26T22:59:37.000Z,81
2022-08-26T23:01:43.000Z,81
2022-08-26T23:03:09.000Z,81
2022-08-26T23:05:15.000Z,80
2022-08-26T23:06:42.000Z,81
2022-08-26T23:08:48.000Z,81
2022-08-26T23:10:14.000Z,81
2022-08-26T23:12:21.000Z,81
2022-08-26T23:13:47.000Z,81
2022-08-26T23:15:53.000Z,80
2022-08-26T23:17:20.000Z,79
2022-08-26T23:19:26.000Z,80
2022-08-26T23:20:53.000Z,80
2022-08-26T23:22:59.000Z,81
2022-08-26T23:24:25.000Z,80
2022-08-26T23:26:32.000Z,80
2022-08-26T23:27:58.000Z,81
2022-08-26T23:30:04.000Z,81
2022-08-26T23:32:55.000Z,81
2022-08-26T23:34:22.000Z,80
2022-08-26T23:36:29.000Z,81
2022-08-26T23:37:57.000Z,80
2022-08-26T23:40:11.000Z,81
2022-08-26T23:41:38.000Z,81
2022-08-26T23:43:44.000Z,81
2022-08-26T23:45:10.000Z,80
2022-08-26T23:47:17.000Z,81
2022-08-26T23:48:43.000Z,81
2022-08-26T23:50:49.000Z,81
2022-08-26T23:52:16.000Z,81
2022-08-26T23:54:22.000Z,81
2022-08-26T23:55:48.000Z,80
2022-08-26T23:57:54.000Z,81
2022-08-26T23:59:21.000Z,81
